Latest Weather Observations for Whyalla

IDS60801

Issued at 4:02 pm CST Wednesday 28 September 2016 (issued every 30 minutes, with the page automatically refreshed every 10 minutes)

About weather observations | Map of weather stations | Latest weather observations for SA | Other Formats
Station Details ID: 018120 Name: WHYALLA AERO Lat: -33.05 Lon: 137.52 Height: 9.3 m
Data from the previous 72 hours. | See also: Recent months at Whyalla
Date/Time
CST
Temp
°C
App
Temp
°C
Dew
Point
°C
Rel
Hum
%
Delta-T
°C
Wind Press
QNH
hPa
Press
MSL
hPa
Rain since
9am
mm
Dir  Spd
km/h
Gust
km/h
Spd
kts
Gust
kts
28/04:00pm 18.5 10.7 9.6 56 4.7 W 41 69 22 37 991.3 991.2 18.0
28/03:30pm 19.2 13.0 13.8 71 3.1 W 39 57 21 31 990.3 990.2 18.0
28/03:21pm 19.0 14.6 13.0 68 3.4 W 28 54 15 29 990.0 989.9 18.0
28/03:17pm 19.0 16.6 16.4 85 1.6 WNW 24 32 13 17 990.2 990.1 18.0
28/03:02pm 16.0 9.7 14.5 91 0.9 WNW 41 76 22 41 990.2 990.1 18.0
28/03:00pm 15.6 8.3 13.4 87 1.2 WNW 44 76 24 41 990.4 990.3 18.0
28/02:56pm 16.7 8.5 13.0 79 2.1 NW 48 76 26 41 989.8 989.7 16.0
28/02:54pm 18.1 9.8 13.8 76 2.4 NNW 50 76 27 41 989.4 989.3 16.0
28/02:51pm 21.0 14.7 17.0 78 2.4 N 46 70 25 38 988.2 988.1 16.0
28/02:39pm 19.5 10.2 14.7 74 2.8 NNE 57 83 31 45 985.9 985.8 14.2
28/02:30pm 24.2 15.6 16.7 63 4.7 N 57 83 31 45 986.6 986.5 13.0
28/02:00pm 23.7 15.1 16.2 63 4.6 NNE 56 78 30 42 987.6 987.5 13.0
28/01:51pm 24.4 16.7 16.4 61 4.9 NNE 52 70 28 38 988.4 988.3 13.0
28/01:46pm 24.5 16.4 16.5 61 4.9 N 54 69 29 37 989.0 988.9 13.0
28/01:30pm 23.9 16.7 16.7 64 4.5 N 50 74 27 40 991.0 990.9 13.0
28/01:00pm 23.2 16.7 16.7 67 4.0 N 46 65 25 35 992.9 992.8 13.0
28/12:58pm 23.1 16.2 16.6 67 4.0 N 48 69 26 37 993.0 992.9 13.0
28/12:32pm 21.7 18.5 16.2 71 3.3 N 28 52 15 28 995.0 995.0 13.0
28/12:30pm 21.7 18.8 16.2 71 3.3 N 26 46 14 25 995.2 995.2 13.0
28/12:26pm 21.3 18.3 16.7 75 2.8 N 28 46 15 25 995.5 995.5 13.0
28/12:21pm 20.8 17.9 16.2 75 2.8 N 26 46 14 25 995.7 995.7 13.0
28/12:15pm 19.9 20.2 17.9 88 1.2 ENE 13 28 7 15 995.8 995.8 13.0
28/12:00pm 14.7 12.7 12.7 88 1.1 S 15 20 8 11 997.0 997.0 13.0
28/11:30am 15.4 14.6 12.9 85 1.4 N 9 17 5 9 997.6 997.6 13.0
28/11:00am 13.3 13.3 11.2 87 1.1 WNW 2 7 1 4 998.7 998.7 13.0
28/10:58am 13.2 13.2 11.1 87 1.1 W 2 13 1 7 998.5 998.5 13.0
28/10:33am 13.1 8.7 10.5 84 1.4 NW 24 44 13 24 999.8 999.8 12.2
28/10:31am 15.0 12.0 12.5 85 1.4 N 20 35 11 19 1000.3 1000.3 11.4
28/10:30am 15.7 12.9 12.5 81 1.8 N 19 30 10 16 999.9 999.9 10.6
28/10:00am 13.3 10.8 11.2 87 1.1 NNW 15 19 8 10 999.8 999.8 3.4
28/09:57am 13.4 11.3 11.1 86 1.2 WNW 13 19 7 10 999.9 999.9 2.6
28/09:30am 15.1 13.1 10.1 72 2.6 NNW 11 17 6 9 999.6 999.6 0.2
28/09:00am 16.9 13.1 5.8 48 5.4 NE 15 24 8 13 1000.6 1000.6 0.0
28/08:30am 16.8 13.4 6.0 49 5.3 NE 13 22 7 12 1001.5 1001.5 0.0
28/08:00am 13.6 13.2 8.4 71 2.6 CALM 0 7 0 4 1002.8 1002.8 0.0
28/07:30am 9.8 8.9 7.9 88 0.9 WNW 2 6 1 3 1003.8 1003.8 0.0
28/07:00am 7.3 5.0 5.9 91 0.6 NW 7 9 4 5 1004.6 1004.6 0.0
28/06:30am 5.1 2.2 4.5 96 0.3 NW 9 11 5 6 1005.1 1005.1 0.0
28/06:00am 4.3 1.1 3.3 93 0.4 NNW 9 9 5 5 1005.3 1005.3 0.0
28/05:30am 4.8 2.1 3.8 93 0.4 NW 7 7 4 4 1005.7 1005.7 0.0
28/05:00am 5.2 2.8 4.3 94 0.4 NW 6 9 3 5 1005.9 1005.9 0.0
28/04:30am 5.0 2.0 4.0 93 0.4 NW 9 9 5 5 1006.7 1006.7 0.0
28/04:00am 6.2 3.9 5.0 92 0.5 W 6 9 3 5 1007.0 1007.0 0.0
28/03:30am 6.6 4.2 5.1 90 0.7 WNW 7 11 4 6 1007.7 1007.7 0.0
28/03:00am 6.8 4.4 5.1 89 0.7 WNW 7 9 4 5 1008.1 1008.1 0.0
28/02:30am 7.1 4.3 5.3 88 0.8 NW 9 11 5 6 1009.0 1009.0 0.0
28/02:00am 7.0 4.2 5.0 87 0.9 W 9 11 5 6 1009.6 1009.6 0.0
28/01:30am 8.1 6.0 5.6 84 1.1 WNW 6 7 3 4 1010.0 1010.0 0.0
28/01:00am 8.6 6.5 5.7 82 1.3 WNW 6 7 3 4 1010.5 1010.5 0.0
28/12:30am 8.9 6.2 5.8 81 1.4 WNW 9 11 5 6 1011.2 1011.2 0.0
28/12:00am 8.4 5.3 5.7 83 1.2 WNW 11 13 6 7 1011.3 1011.3 0.0
 
Date/Time
CST
Temp
°C
App
Temp
°C
Dew
Point
°C
Rel
Hum
%
Delta-T
°C
Wind Press
QNH
hPa
Press
MSL
hPa
Rain since
9am
mm
Dir  Spd
km/h
Gust
km/h
Spd
kts
Gust
kts
27/11:30pm 9.4 5.7 6.1 80 1.5 WNW 15 17 8 9 1011.6 1011.6 0.0
27/11:00pm 8.9 6.2 5.5 79 1.5 WNW 9 11 5 6 1011.8 1011.8 0.0
27/10:30pm 9.5 8.1 5.7 77 1.7 NW 2 7 1 4 1012.1 1012.1 0.0
27/10:00pm 11.0 10.0 5.7 70 2.4 CALM 0 6 0 3 1012.2 1012.2 0.0
27/09:30pm 13.4 11.2 6.0 61 3.5 NE 7 11 4 6 1012.4 1012.4 0.0
27/09:00pm 13.6 11.0 6.2 61 3.5 NE 9 13 5 7 1012.7 1012.7 0.0
27/08:30pm 13.8 10.8 6.2 60 3.6 NE 11 15 6 8 1012.8 1012.8 0.0
27/08:00pm 14.3 11.3 6.2 58 3.9 NE 11 15 6 8 1013.0 1013.0 0.0
27/07:30pm 14.6 11.4 6.9 60 3.8 NE 13 17 7 9 1012.9 1012.9 0.0
27/07:00pm 14.6 11.4 6.9 60 3.8 ENE 13 19 7 10 1012.9 1012.9 0.0
27/06:30pm 14.7 11.4 8.0 64 3.3 ENE 15 20 8 11 1012.9 1012.9 0.0
27/06:00pm 16.0 11.6 6.4 53 4.7 ENE 19 26 10 14 1013.0 1013.0 0.0
27/05:30pm 16.9 12.3 5.8 48 5.4 ENE 19 24 10 13 1013.2 1013.2 0.0
27/05:00pm 17.2 12.4 5.8 47 5.5 ENE 20 28 11 15 1013.2 1013.2 0.0
27/04:30pm 17.6 13.0 6.5 48 5.5 ENE 20 26 11 14 1013.4 1013.4 0.0
27/04:00pm 17.3 12.7 6.5 49 5.3 ENE 20 24 11 13 1013.8 1013.8 0.0
27/03:30pm 17.2 12.3 7.0 51 5.1 E 22 28 12 15 1013.8 1013.8 0.0
27/03:00pm 17.1 12.7 7.2 52 4.9 E 20 28 11 15 1014.1 1014.1 0.0
27/02:30pm 16.4 11.6 7.3 55 4.5 E 22 30 12 16 1014.4 1014.4 0.0
27/02:00pm 16.1 11.1 6.5 53 4.7 E 22 30 12 16 1014.8 1014.8 0.0
27/01:30pm 16.4 12.0 7.6 56 4.4 E 20 28 11 15 1015.3 1015.3 0.0
27/01:00pm 16.0 11.5 5.9 51 4.9 ESE 19 26 10 14 1015.9 1015.9 0.0
27/12:30pm 16.3 11.6 7.8 57 4.3 E 22 30 12 16 1016.2 1016.2 0.0
27/12:00pm 15.6 10.8 5.8 52 4.7 E 20 28 11 15 1016.4 1016.4 0.0
27/11:30am 15.6 12.9 5.8 52 4.7 SE 9 20 5 11 1016.8 1016.8 0.0
27/11:00am 16.2 13.5 7.2 55 4.5 NNW 11 17 6 9 1017.2 1017.2 0.0
27/10:30am 15.0 12.1 4.7 50 4.8 WNW 9 15 5 8 1017.4 1017.4 0.0
27/10:00am 14.6 11.9 5.7 55 4.2 NW 9 17 5 9 1017.6 1017.6 0.0
27/09:30am 14.5 12.4 6.6 59 3.8 NW 7 13 4 7 1017.8 1017.8 0.0
27/09:00am 13.1 10.1 6.2 63 3.3 NNE 11 15 6 8 1018.0 1018.0 0.0
27/08:30am 12.3 10.4 7.6 73 2.3 NNW 7 11 4 6 1018.0 1018.0 0.0
27/08:00am 10.9 7.8 7.2 78 1.8 NW 13 15 7 8 1017.7 1017.7 0.0
27/07:30am 9.3 7.0 7.6 89 0.8 NW 9 13 5 7 1017.6 1017.6 0.0
27/07:00am 6.8 4.2 5.9 94 0.4 NNW 9 11 5 6 1017.4 1017.4 0.0
27/06:30am 4.7 1.7 4.1 96 0.3 NW 9 13 5 7 1017.2 1017.2 0.0
27/06:00am 4.2 0.8 3.8 97 0.2 NW 11 13 6 7 1017.1 1017.1 0.0
27/05:30am 4.4 1.0 4.0 97 0.2 NNW 11 13 6 7 1016.6 1016.6 0.0
27/05:00am 4.4 1.0 3.8 96 0.2 NW 11 15 6 8 1016.3 1016.3 0.0
27/04:30am 4.5 0.7 3.9 96 0.3 NW 13 15 7 8 1015.9 1015.9 0.0
27/04:00am 4.2 1.1 3.5 95 0.3 NNW 9 11 5 6 1015.7 1015.7 0.0
27/03:30am 4.7 2.0 3.7 93 0.4 NNW 7 11 4 6 1015.5 1015.5 0.0
27/03:00am 4.7 2.0 3.5 92 0.5 NNW 7 9 4 5 1015.8 1015.8 0.0
27/02:30am 6.2 4.9 4.2 87 0.9 CALM 0 0 0 0 1015.8 1015.8 0.0
27/02:00am 6.3 3.8 4.5 88 0.8 W 7 9 4 5 1016.2 1016.2 0.0
27/01:30am 6.0 2.3 4.3 89 0.7 WNW 13 15 7 8 1016.4 1016.4 0.0
27/01:00am 5.9 2.1 3.9 87 0.8 WNW 13 13 7 7 1016.3 1016.3 0.0
27/12:30am 6.5 3.1 4.2 85 1.0 W 11 13 6 7 1016.6 1016.6 0.0
27/12:00am 7.3 4.7 4.4 82 1.3 W 7 9 4 5 1016.8 1016.8 0.0
 
Date/Time
CST
Temp
°C
App
Temp
°C
Dew
Point
°C
Rel
Hum
%
Delta-T
°C
Wind Press
QNH
hPa
Press
MSL
hPa
Rain since
9am
mm
Dir  Spd
km/h
Gust
km/h
Spd
kts
Gust
kts
26/11:30pm 8.0 4.3 4.2 77 1.6 WSW 13 13 7 7 1016.7 1016.7 0.0
26/11:00pm 9.0 6.1 4.4 73 2.0 WSW 9 9 5 5 1016.8 1016.8 0.0
26/10:30pm 9.3 6.4 4.5 72 2.1 WSW 9 11 5 6 1016.8 1016.8 0.0
26/10:00pm 9.9 7.0 4.7 70 2.3 WSW 9 13 5 7 1016.5 1016.5 0.0
26/09:30pm 10.9 7.7 5.0 67 2.7 SW 11 15 6 8 1016.5 1016.5 0.0
26/09:00pm 11.7 8.2 5.6 66 2.8 SSW 13 20 7 11 1016.2 1016.2 0.0
26/08:30pm 12.6 8.5 6.2 65 3.0 SSW 17 22 9 12 1015.9 1015.9 0.0
26/08:00pm 12.9 8.4 6.0 63 3.3 S 19 22 10 12 1015.7 1015.7 0.0
26/07:30pm 13.1 9.8 8.2 72 2.4 S 15 24 8 13 1015.2 1015.2 0.0
26/07:00pm 13.6 9.5 8.0 69 2.8 SSE 19 28 10 15 1014.6 1014.6 0.0
26/06:30pm 13.9 9.2 7.7 66 3.1 SSE 22 32 12 17 1014.2 1014.2 0.0
26/06:00pm 14.2 9.1 7.5 64 3.3 SSE 24 33 13 18 1014.0 1014.0 0.0
26/05:30pm 14.8 9.0 7.8 63 3.5 S 28 39 15 21 1013.5 1013.5 0.0
26/05:00pm 15.3 9.3 7.1 58 4.0 S 28 44 15 24 1013.0 1013.0 0.0
26/04:30pm 15.5 10.0 9.2 66 3.2 SSE 28 39 15 21 1012.5 1012.5 0.0
26/04:00pm 16.0 10.3 9.9 67 3.2 SSE 30 44 16 24 1012.4 1012.4 0.0
26/03:30pm 15.7 9.9 9.6 67 3.2 S 30 43 16 23 1012.0 1012.0 0.0
26/03:00pm 16.0 10.1 10.5 70 2.9 SSE 32 41 17 22 1011.9 1011.9 0.0
26/02:30pm 16.3 11.3 11.0 71 2.8 SSE 28 41 15 22 1011.6 1011.6 0.0
26/02:00pm 16.5 11.5 10.8 69 3.0 SSE 28 39 15 21 1011.7 1011.7 0.0
26/01:30pm 16.4 11.0 10.9 70 2.9 SSE 30 39 16 21 1011.8 1011.8 0.0
26/01:10pm 17.7 12.5 8.8 56 4.6 WSW 26 41 14 22 1011.7 1011.7 0.0
26/01:00pm 23.0 16.4 4.0 29 9.3 W 28 52 15 28 1011.5 1011.5 0.0
26/12:51pm 23.6 17.4 6.0 32 9.0 NW 28 50 15 27 1011.4 1011.4 0.0
26/12:30pm 22.9 16.0 4.4 30 9.1 WNW 30 44 16 24 1011.9 1011.9 0.0
26/12:02pm 21.8 14.0 3.0 29 8.9 NW 33 52 18 28 1012.4 1012.4 0.0
26/12:00pm 22.0 14.3 3.6 30 8.9 WNW 33 48 18 26 1012.4 1012.4 0.0
26/11:39am 21.4 13.1 4.0 32 8.4 WNW 37 56 20 30 1012.5 1012.5 0.0
26/11:30am 21.0 13.3 3.2 31 8.4 WNW 33 46 18 25 1012.6 1012.6 0.0
26/11:00am 21.3 13.8 3.5 31 8.5 NW 32 46 17 25 1012.7 1012.7 0.0
26/10:30am 20.2 14.3 5.8 39 7.1 N 26 35 14 19 1013.0 1013.0 0.0
26/10:00am 18.9 13.5 6.4 44 6.2 N 24 30 13 16 1013.4 1013.4 0.0
26/09:30am 17.8 10.7 3.7 39 6.6 NNW 30 37 16 20 1013.8 1013.8 0.0
26/09:00am 17.0 10.5 4.7 44 5.8 NNW 28 37 15 20 1013.9 1013.9 0.2
26/08:30am 15.8 10.1 4.8 48 5.2 N 24 30 13 16 1013.9 1013.9 0.2
26/08:00am 11.9 7.6 7.2 73 2.3 NW 19 24 10 13 1013.7 1013.7 0.2
26/07:30am 9.0 4.4 5.6 79 1.5 NW 19 24 10 13 1013.1 1013.1 0.2
26/07:00am 8.3 4.8 5.4 82 1.3 NW 13 17 7 9 1012.8 1012.8 0.2
26/06:30am 6.1 3.2 4.6 90 0.6 NW 9 13 5 7 1012.7 1012.7 0.2
26/06:00am 5.7 2.4 4.3 91 0.6 NW 11 13 6 7 1012.8 1012.8 0.2
26/05:30am 5.5 1.8 4.5 93 0.4 NW 13 17 7 9 1012.9 1012.9 0.2
26/05:00am 5.5 2.5 4.0 90 0.6 NNW 9 13 5 7 1012.4 1012.4 0.2
26/04:30am 5.7 2.7 4.2 90 0.6 NW 9 11 5 6 1012.6 1012.6 0.2
26/04:00am 6.1 2.4 4.6 90 0.6 NNW 13 15 7 8 1012.6 1012.6 0.2
26/03:30am 5.8 2.1 4.6 92 0.5 NNW 13 17 7 9 1013.0 1013.0 0.2
26/03:00am 5.7 2.3 4.0 89 0.7 WNW 11 13 6 7 1013.2 1013.2 0.2
26/02:30am 6.8 3.9 4.6 86 1.0 NNE 9 11 5 6 1013.2 1013.2 0.2
26/02:00am 7.6 4.5 5.6 87 0.9 N 11 13 6 7 1014.0 1014.0 0.2
26/01:30am 7.2 3.6 5.2 87 0.9 NNW 13 15 7 8 1014.5 1014.5 0.2
26/01:00am 7.7 4.3 5.7 87 0.9 N 13 15 7 8 1015.0 1015.0 0.2
26/12:30am 8.1 4.7 5.7 85 1.1 N 13 13 7 7 1015.3 1015.3 0.2
26/12:00am 9.0 5.6 5.7 80 1.5 N 13 15 7 8 1015.4 1015.4 0.2
 
Date/Time
CST
Temp
°C
App
Temp
°C
Dew
Point
°C
Rel
Hum
%
Delta-T
°C
Wind Press
QNH
hPa
Press
MSL
hPa
Rain since
9am
mm
Dir  Spd
km/h
Gust
km/h
Spd
kts
Gust
kts
25/11:30pm 9.2 5.9 6.3 82 1.3 NNW 13 15 7 8 1015.7 1015.7 0.2
25/11:00pm 9.5 6.3 6.9 84 1.2 NNW 13 15 7 8 1015.7 1015.7 0.2
25/10:30pm 9.6 6.4 6.9 83 1.3 N 13 17 7 9 1015.7 1015.7 0.2
25/10:00pm 10.3 7.6 7.2 81 1.5 N 11 15 6 8 1015.7 1015.7 0.2
25/09:30pm 12.0 9.0 7.5 74 2.2 NNE 13 17 7 9 1015.5 1015.5 0.2
25/09:00pm 13.4 11.2 7.8 69 2.8 NE 9 13 5 7 1015.4 1015.4 0.2
25/08:30pm 13.1 10.8 7.5 69 2.7 NE 9 13 5 7 1015.2 1015.2 0.2
25/08:00pm 13.7 11.1 7.9 68 2.9 NE 11 17 6 9 1015.1 1015.1 0.2
25/07:30pm 12.5 10.2 7.6 72 2.4 NE 9 11 5 6 1014.9 1014.9 0.2
25/07:00pm 12.3 9.9 6.8 69 2.6 ENE 9 11 5 6 1014.5 1014.5 0.2
25/06:30pm 12.9 10.0 6.5 65 3.1 ENE 11 15 6 8 1014.3 1014.3 0.2
25/06:00pm 14.1 11.3 6.9 62 3.5 E 11 15 6 8 1014.1 1014.1 0.2
25/05:30pm 14.9 10.4 6.2 56 4.2 ENE 19 24 10 13 1013.9 1013.9 0.2
25/05:00pm 15.0 10.4 6.3 56 4.2 E 20 28 11 15 1013.8 1013.8 0.2
25/04:30pm 15.3 10.4 5.0 50 4.8 E 20 28 11 15 1013.9 1013.9 0.2

Other Formats:

Comma delimited format used in spreadsheet applications
http://www.bom.gov.au/fwo/IDS60801/IDS60801.95664.axf

JavaScript Object Notation format (JSON) in row-major order
http://www.bom.gov.au/fwo/IDS60801/IDS60801.95664.json